Adrian, ND

2:07 AM CDT on September 03, 2014 (GMT -0500)
Jamestown Municipal | Change Station
CLOSE
Current Station
Airport
Location: Jamestown,
Elevation: 1499 ft
Nearby Weather Stations

Elev 1499 ft 46.93 °N, 98.67 °W | Updated 11 minutes ago

Clear
Clear
52 °F
Feels Like 52 °F
N
0
Wind Variable Wind from North

Today
High -- | Low -- °F
--% Chance of Precip.
Yesterday
High -- | Low -- °F
Precip. -- in
6:56 AM 8:09 PM
First Quarter, 59% visible
Pressure 29.75 in
Visibility 10.0 miles
Clouds Clear
Dew Point 50 °F
Humidity 93%
Rainfall 0.00 in
Snow Depth Not available.
UV 0 out of 12
Pollen 10.10 out of 12
Air Quality Not available.
Flu Activity Not available.
METAR KJMS 030656Z AUTO 00000KT 10SM CLR 11/10 A2976 RMK AO2 SLP074 T01110100

More Conditions Fewer Conditions

Pressure 29.75 in
Visibility 10.0 miles
Clouds Clear
Dew Point 50 °F
Humidity 93%
Rainfall 0.00 in
Snow Depth Not available.
UV 0 out of 12
Pollen 10.10 out of 12
Air Quality Not available.
Flu Activity Not available.
METAR KJMS 030656Z AUTO 00000KT 10SM CLR 11/10 A2976 RMK AO2 SLP074 T01110100

More Conditions Fewer Conditions

10-Day Weather Forecast

Almanac

Astronomy

Sep. 03, 2014 Rise Set
Actual Time 6:56 AM CDT 8:09 PM CDT
Civil Twilight 6:25 AM CDT 8:40 PM CDT
Nautical Twilight 5:48 AM CDT 9:18 PM CDT
Astronomical Twilight 5:08 AM CDT 9:57 PM CDT
Moon 4:04 PM CDT 12:40 AM CDT
Length of Visible Light 14h 15m
Length of Day
13h 12m
Tomorrow will be 3m 14s shorter.
First Quarter, 59% of the Moon is Illuminated
Today
First Quarter
Sep 8
Full
Sep 15
Last Quarter
Sep 24
New
Oct 1
First Quarter

Today's Extremes

State Highs State Lows

Community

WunderPhotos

Upload Photos

1,749,888 photos uploaded!

Nearby

Snow Depth

Station Depth Elevation
No new snow has been reported.

Earthquake Activity

City Distance Mag. Time & Date
No recent earthquake activity has been reported nearby.
Minimum magnitude displayed is 2.5.

Coastal Water Temperatures

Place Temperature
No Stations Reporting

Nearby Weather Stations